sensor_id;sensor_type;location;lat;lon;timestamp;pressure;altitude;pressure_sealevel;temperature
12662;BMP180;3200;48.204;11.576;2024-03-25T00:01:39;94226.81;;;4.39
12662;BMP180;3200;48.204;11.576;2024-03-25T00:04:05;94247.22;;;4.50
12662;BMP180;3200;48.204;11.576;2024-03-25T00:06:31;94282.38;;;4.69
12662;BMP180;3200;48.204;11.576;2024-03-25T00:09:00;94296.13;;;4.77
12662;BMP180;3200;48.204;11.576;2024-03-25T00:11:27;94338.16;;;5.04
12662;BMP180;3200;48.204;11.576;2024-03-25T00:13:53;94242.19;;;4.42
12662;BMP180;3200;48.204;11.576;2024-03-25T00:16:19;94237.16;;;4.33
12662;BMP180;3200;48.204;11.576;2024-03-25T00:18:45;94240.44;;;4.16
12662;BMP180;3200;48.204;11.576;2024-03-25T00:21:10;94321.84;;;4.75
12662;BMP180;3200;48.204;11.576;2024-03-25T00:23:36;94297.34;;;4.75
12662;BMP180;3200;48.204;11.576;2024-03-25T00:26:02;94338.16;;;4.97
12662;BMP180;3200;48.204;11.576;2024-03-25T00:28:28;94343.44;;;5.04
12662;BMP180;3200;48.204;11.576;2024-03-25T00:30:54;94255.41;;;4.28
12662;BMP180;3200;48.204;11.576;2024-03-25T00:33:20;94266.91;;;4.27
12662;BMP180;3200;48.204;11.576;2024-03-25T00:35:46;94337.41;;;4.83
12662;BMP180;3200;48.204;11.576;2024-03-25T00:38:12;94265.66;;;4.36
12662;BMP180;3200;48.204;11.576;2024-03-25T00:40:38;94345.91;;;4.85
12662;BMP180;3200;48.204;11.576;2024-03-25T00:43:04;94247.72;;;4.20
12662;BMP180;3200;48.204;11.576;2024-03-25T00:45:30;94248.50;;;4.27
12662;BMP180;3200;48.204;11.576;2024-03-25T00:47:58;94291.38;;;4.48
12662;BMP180;3200;48.204;11.576;2024-03-25T00:50:26;94251.75;;;4.16
12662;BMP180;3200;48.204;11.576;2024-03-25T00:52:52;94339.63;;;4.86
12662;BMP180;3200;48.204;11.576;2024-03-25T00:55:18;94204.06;;;4.06
12662;BMP180;3200;48.204;11.576;2024-03-25T00:57:44;94192.56;;;3.80
12662;BMP180;3200;48.204;11.576;2024-03-25T01:00:11;94226.31;;;4.10
12662;BMP180;3200;48.204;11.576;2024-03-25T01:02:37;94323.88;;;4.73
12662;BMP180;3200;48.204;11.576;2024-03-25T01:05:04;94289.34;;;4.36
12662;BMP180;3200;48.204;11.576;2024-03-25T01:07:31;94333.63;;;4.59
12662;BMP180;3200;48.204;11.576;2024-03-25T01:09:57;94205.72;;;3.87
12662;BMP180;3200;48.204;11.576;2024-03-25T01:12:25;94310.38;;;4.56
12662;BMP180;3200;48.204;11.576;2024-03-25T01:14:52;94258.22;;;4.20
12662;BMP180;3200;48.204;11.576;2024-03-25T01:17:18;94277.22;;;4.35
12662;BMP180;3200;48.204;11.576;2024-03-25T01:19:44;94316.25;;;4.45
12662;BMP180;3200;48.204;11.576;2024-03-25T01:22:10;94235.00;;;4.10
12662;BMP180;3200;48.204;11.576;2024-03-25T01:24:39;94214.59;;;3.93
12662;BMP180;3200;48.204;11.576;2024-03-25T01:27:05;94304.69;;;4.46
12662;BMP180;3200;48.204;11.576;2024-03-25T01:29:32;94277.66;;;4.13
12662;BMP180;3200;48.204;11.576;2024-03-25T01:31:58;94249.16;;;4.03
12662;BMP180;3200;48.204;11.576;2024-03-25T01:34:25;94281.72;;;4.15
12662;BMP180;3200;48.204;11.576;2024-03-25T01:36:52;94191.97;;;3.65
12662;BMP180;3200;48.204;11.576;2024-03-25T01:39:18;94219.44;;;3.76
12662;BMP180;3200;48.204;11.576;2024-03-25T01:41:44;94198.66;;;3.68
12662;BMP180;3200;48.204;11.576;2024-03-25T01:44:11;94253.41;;;3.84
12662;BMP180;3200;48.204;11.576;2024-03-25T01:46:37;94255.66;;;4.00
12662;BMP180;3200;48.204;11.576;2024-03-25T01:49:05;94228.56;;;3.87
12662;BMP180;3200;48.204;11.576;2024-03-25T01:51:34;94270.34;;;4.28
12662;BMP180;3200;48.204;11.576;2024-03-25T01:54:02;94280.47;;;4.24
12662;BMP180;3200;48.204;11.576;2024-03-25T01:56:33;94259.28;;;3.93
12662;BMP180;3200;48.204;11.576;2024-03-25T01:59:00;94177.03;;;3.46
12662;BMP180;3200;48.204;11.576;2024-03-25T02:01:28;94279.69;;;4.10
12662;BMP180;3200;48.204;11.576;2024-03-25T02:03:55;94186.13;;;3.63
12662;BMP180;3200;48.204;11.576;2024-03-25T02:06:22;94184.72;;;3.54
12662;BMP180;3200;48.204;11.576;2024-03-25T02:08:50;94287.56;;;4.04
12662;BMP180;3200;48.204;11.576;2024-03-25T02:11:19;94258.41;;;4.25
12662;BMP180;3200;48.204;11.576;2024-03-25T02:13:45;94215.38;;;4.00
12662;BMP180;3200;48.204;11.576;2024-03-25T02:16:11;94227.34;;;3.82
12662;BMP180;3200;48.204;11.576;2024-03-25T02:18:37;94306.97;;;4.29
12662;BMP180;3200;48.204;11.576;2024-03-25T02:21:03;94197.25;;;3.65
12662;BMP180;3200;48.204;11.576;2024-03-25T02:23:31;94172.97;;;3.70
12662;BMP180;3200;48.204;11.576;2024-03-25T02:26:02;94244.50;;;3.85
12662;BMP180;3200;48.204;11.576;2024-03-25T02:28:28;94257.44;;;4.00
12662;BMP180;3200;48.204;11.576;2024-03-25T02:30:54;94294.84;;;4.28
12662;BMP180;3200;48.204;11.576;2024-03-25T02:33:20;94247.13;;;4.12
12662;BMP180;3200;48.204;11.576;2024-03-25T02:35:46;94261.91;;;4.06
12662;BMP180;3200;48.204;11.576;2024-03-25T02:38:12;94240.84;;;4.13
12662;BMP180;3200;48.204;11.576;2024-03-25T02:40:41;94213.56;;;3.94
12662;BMP180;3200;48.204;11.576;2024-03-25T02:43:07;94228.13;;;4.09
12662;BMP180;3200;48.204;11.576;2024-03-25T02:45:33;94231.16;;;4.06
12662;BMP180;3200;48.204;11.576;2024-03-25T02:47:59;94224.09;;;4.00
12662;BMP180;3200;48.204;11.576;2024-03-25T02:50:25;94312.97;;;4.63
12662;BMP180;3200;48.204;11.576;2024-03-25T02:52:52;94288.72;;;4.48
12662;BMP180;3200;48.204;11.576;2024-03-25T02:55:18;94250.16;;;4.08
12662;BMP180;3200;48.204;11.576;2024-03-25T02:57:44;94249.31;;;4.21
12662;BMP180;3200;48.204;11.576;2024-03-25T03:00:11;94274.00;;;4.27
12662;BMP180;3200;48.204;11.576;2024-03-25T03:02:37;94248.13;;;4.10
12662;BMP180;3200;48.204;11.576;2024-03-25T03:05:03;94166.13;;;3.69
12662;BMP180;3200;48.204;11.576;2024-03-25T03:07:29;94291.41;;;4.15
12662;BMP180;3200;48.204;11.576;2024-03-25T03:09:55;94249.94;;;4.17
12662;BMP180;3200;48.204;11.576;2024-03-25T03:12:21;94215.78;;;4.10
12662;BMP180;3200;48.204;11.576;2024-03-25T03:14:47;94311.38;;;4.62
12662;BMP180;3200;48.204;11.576;2024-03-25T03:17:13;94239.03;;;4.00
12662;BMP180;3200;48.204;11.576;2024-03-25T03:19:39;94300.06;;;4.48
12662;BMP180;3200;48.204;11.576;2024-03-25T03:22:05;94278.66;;;4.25
12662;BMP180;3200;48.204;11.576;2024-03-25T03:24:31;94315.44;;;4.45
12662;BMP180;3200;48.204;11.576;2024-03-25T03:26:58;94330.22;;;4.52
12662;BMP180;3200;48.204;11.576;2024-03-25T03:29:24;94226.13;;;3.78
12662;BMP180;3200;48.204;11.576;2024-03-25T03:31:50;94305.38;;;4.28
12662;BMP180;3200;48.204;11.576;2024-03-25T03:34:16;94296.25;;;4.18
12662;BMP180;3200;48.204;11.576;2024-03-25T03:36:42;94310.44;;;4.03
12662;BMP180;3200;48.204;11.576;2024-03-25T03:39:08;94226.97;;;3.59
12662;BMP180;3200;48.204;11.576;2024-03-25T03:41:35;94271.59;;;3.66
12662;BMP180;3200;48.204;11.576;2024-03-25T03:44:02;94239.69;;;3.36
12662;BMP180;3200;48.204;11.576;2024-03-25T03:46:28;94283.53;;;3.75
12662;BMP180;3200;48.204;11.576;2024-03-25T03:48:54;94237.06;;;3.36
12662;BMP180;3200;48.204;11.576;2024-03-25T03:51:20;94243.31;;;3.41
12662;BMP180;3200;48.204;11.576;2024-03-25T03:53:46;94304.78;;;3.73
12662;BMP180;3200;48.204;11.576;2024-03-25T03:56:12;94221.47;;;3.14
12662;BMP180;3200;48.204;11.576;2024-03-25T03:58:38;94198.03;;;2.93
12662;BMP180;3200;48.204;11.576;2024-03-25T04:01:04;94260.69;;;3.36
12662;BMP180;3200;48.204;11.576;2024-03-25T04:03:30;94348.03;;;3.77
12662;BMP180;3200;48.204;11.576;2024-03-25T04:05:56;94286.94;;;3.36
12662;BMP180;3200;48.204;11.576;2024-03-25T04:08:22;94259.03;;;3.15
12662;BMP180;3200;48.204;11.576;2024-03-25T04:10:48;94274.38;;;3.18
12662;BMP180;3200;48.204;11.576;2024-03-25T04:13:14;94230.53;;;2.92
12662;BMP180;3200;48.204;11.576;2024-03-25T04:15:43;94222.66;;;2.92
12662;BMP180;3200;48.204;11.576;2024-03-25T04:18:09;94258.00;;;3.09
12662;BMP180;3200;48.204;11.576;2024-03-25T04:20:40;94319.06;;;3.31
12662;BMP180;3200;48.204;11.576;2024-03-25T04:23:07;94345.78;;;3.54
12662;BMP180;3200;48.204;11.576;2024-03-25T04:25:36;94212.06;;;2.65
12662;BMP180;3200;48.204;11.576;2024-03-25T04:28:06;94330.16;;;3.33
12662;BMP180;3200;48.204;11.576;2024-03-25T04:30:33;94273.16;;;3.07
12662;BMP180;3200;48.204;11.576;2024-03-25T04:33:00;94243.19;;;2.81
12662;BMP180;3200;48.204;11.576;2024-03-25T04:35:25;94274.72;;;2.88
12662;BMP180;3200;48.204;11.576;2024-03-25T04:37:52;94321.22;;;3.14
12662;BMP180;3200;48.204;11.576;2024-03-25T04:40:18;94186.78;;;2.44
12662;BMP180;3200;48.204;11.576;2024-03-25T04:42:45;94207.16;;;2.49
12662;BMP180;3200;48.204;11.576;2024-03-25T04:45:11;94313.97;;;3.16
12662;BMP180;3200;48.204;11.576;2024-03-25T04:47:38;94341.88;;;3.37
12662;BMP180;3200;48.204;11.576;2024-03-25T04:50:04;94316.38;;;3.11
12662;BMP180;3200;48.204;11.576;2024-03-25T04:52:31;94288.25;;;2.98
12662;BMP180;3200;48.204;11.576;2024-03-25T04:54:57;94236.28;;;2.67
12662;BMP180;3200;48.204;11.576;2024-03-25T04:57:23;94271.28;;;2.88
12662;BMP180;3200;48.204;11.576;2024-03-25T04:59:49;94273.13;;;2.94
12662;BMP180;3200;48.204;11.576;2024-03-25T05:02:14;94241.16;;;2.70
12662;BMP180;3200;48.204;11.576;2024-03-25T05:04:40;94291.72;;;3.05
12662;BMP180;3200;48.204;11.576;2024-03-25T05:07:06;94289.09;;;3.05
12662;BMP180;3200;48.204;11.576;2024-03-25T05:09:32;94278.34;;;2.87
12662;BMP180;3200;48.204;11.576;2024-03-25T05:11:58;94295.28;;;2.91
12662;BMP180;3200;48.204;11.576;2024-03-25T05:14:24;94344.09;;;3.27
12662;BMP180;3200;48.204;11.576;2024-03-25T05:16:50;94333.22;;;3.37
12662;BMP180;3200;48.204;11.576;2024-03-25T05:19:18;94288.44;;;2.90
12662;BMP180;3200;48.204;11.576;2024-03-25T05:21:44;94354.63;;;3.40
12662;BMP180;3200;48.204;11.576;2024-03-25T05:24:10;94240.31;;;2.63
12662;BMP180;3200;48.204;11.576;2024-03-25T05:26:36;94346.34;;;3.43
12662;BMP180;3200;48.204;11.576;2024-03-25T05:29:02;94348.41;;;3.54
12662;BMP180;3200;48.204;11.576;2024-03-25T05:31:28;94261.03;;;3.06
12662;BMP180;3200;48.204;11.576;2024-03-25T05:33:54;94322.13;;;3.61
12662;BMP180;3200;48.204;11.576;2024-03-25T05:36:20;94363.38;;;3.74
12662;BMP180;3200;48.204;11.576;2024-03-25T05:38:46;94271.16;;;3.22
12662;BMP180;3200;48.204;11.576;2024-03-25T05:41:12;94346.03;;;4.06
12662;BMP180;3200;48.204;11.576;2024-03-25T05:43:38;94287.00;;;3.95
12662;BMP180;3200;48.204;11.576;2024-03-25T05:46:04;94274.84;;;3.88
12662;BMP180;3200;48.204;11.576;2024-03-25T05:48:30;94380.16;;;4.85
12662;BMP180;3200;48.204;11.576;2024-03-25T05:51:06;94297.81;;;4.58
12662;BMP180;3200;48.204;11.576;2024-03-25T05:53:33;94377.81;;;5.22
12662;BMP180;3200;48.204;11.576;2024-03-25T05:55:59;94327.34;;;5.19
12662;BMP180;3200;48.204;11.576;2024-03-25T05:58:25;94320.63;;;5.29
12662;BMP180;3200;48.204;11.576;2024-03-25T06:00:52;94298.50;;;5.37
12662;BMP180;3200;48.204;11.576;2024-03-25T06:03:22;94356.13;;;5.97
12662;BMP180;3200;48.204;11.576;2024-03-25T06:05:48;94314.28;;;5.75
12662;BMP180;3200;48.204;11.576;2024-03-25T06:08:15;94287.38;;;5.92
12662;BMP180;3200;48.204;11.576;2024-03-25T06:10:50;94316.53;;;6.03
12662;BMP180;3200;48.204;11.576;2024-03-25T06:13:17;94322.53;;;6.79
12662;BMP180;3200;48.204;11.576;2024-03-25T06:15:43;94379.47;;;7.11
12662;BMP180;3200;48.204;11.576;2024-03-25T06:18:08;94367.94;;;7.24
12662;BMP180;3200;48.204;11.576;2024-03-25T06:20:34;94374.75;;;7.80
12662;BMP180;3200;48.204;11.576;2024-03-25T06:23:00;94355.34;;;7.86
12662;BMP180;3200;48.204;11.576;2024-03-25T06:25:27;94379.38;;;8.27
12662;BMP180;3200;48.204;11.576;2024-03-25T06:27:54;94369.72;;;10.23
12662;BMP180;3200;48.204;11.576;2024-03-25T06:30:20;94374.78;;;12.78
12662;BMP180;3200;48.204;11.576;2024-03-25T06:33:25;94366.94;;;14.19
12662;BMP180;3200;48.204;11.576;2024-03-25T06:36:09;94342.97;;;13.56
12662;BMP180;3200;48.204;11.576;2024-03-25T06:38:35;94381.47;;;14.79
12662;BMP180;3200;48.204;11.576;2024-03-25T06:41:01;94364.03;;;15.22
12662;BMP180;3200;48.204;11.576;2024-03-25T06:43:27;94373.84;;;15.63
12662;BMP180;3200;48.204;11.576;2024-03-25T06:45:53;94360.13;;;16.68
12662;BMP180;3200;48.204;11.576;2024-03-25T06:48:19;94357.56;;;15.28
12662;BMP180;3200;48.204;11.576;2024-03-25T06:50:58;94318.50;;;12.10
12662;BMP180;3200;48.204;11.576;2024-03-25T06:53:25;94352.91;;;11.02
12662;BMP180;3200;48.204;11.576;2024-03-25T06:56:00;94381.28;;;11.79
12662;BMP180;3200;48.204;11.576;2024-03-25T06:58:29;94370.22;;;11.87
12662;BMP180;3200;48.204;11.576;2024-03-25T07:00:56;94375.16;;;12.60
12662;BMP180;3200;48.204;11.576;2024-03-25T07:03:29;94372.84;;;15.28
12662;BMP180;3200;48.204;11.576;2024-03-25T07:05:54;94357.38;;;17.13
12662;BMP180;3200;48.204;11.576;2024-03-25T07:08:23;94359.56;;;18.06
12662;BMP180;3200;48.204;11.576;2024-03-25T07:10:49;94356.88;;;19.01
12662;BMP180;3200;48.204;11.576;2024-03-25T07:13:15;94361.28;;;18.21
12662;BMP180;3200;48.204;11.576;2024-03-25T07:15:42;94353.56;;;19.50
12662;BMP180;3200;48.204;11.576;2024-03-25T07:18:08;94291.06;;;19.34
12662;BMP180;3200;48.204;11.576;2024-03-25T07:20:36;94344.81;;;19.72
12662;BMP180;3200;48.204;11.576;2024-03-25T07:23:09;94332.59;;;20.02
12662;BMP180;3200;48.204;11.576;2024-03-25T07:25:35;94354.47;;;20.64
12662;BMP180;3200;48.204;11.576;2024-03-25T07:28:02;94297.41;;;21.11
12662;BMP180;3200;48.204;11.576;2024-03-25T07:30:28;94272.59;;;21.09
12662;BMP180;3200;48.204;11.576;2024-03-25T07:32:55;94259.19;;;20.50
12662;BMP180;3200;48.204;11.576;2024-03-25T07:35:22;94349.06;;;20.64
12662;BMP180;3200;48.204;11.576;2024-03-25T07:37:49;94345.91;;;21.69
12662;BMP180;3200;48.204;11.576;2024-03-25T07:40:21;94342.47;;;22.61
12662;BMP180;3200;48.204;11.576;2024-03-25T07:42:49;94355.03;;;23.17
12662;BMP180;3200;48.204;11.576;2024-03-25T07:45:16;94346.00;;;21.95
12662;BMP180;3200;48.204;11.576;2024-03-25T07:47:42;94348.69;;;21.47
12662;BMP180;3200;48.204;11.576;2024-03-25T07:50:09;94350.16;;;23.66
12662;BMP180;3200;48.204;11.576;2024-03-25T07:52:34;94348.91;;;23.93
12662;BMP180;3200;48.204;11.576;2024-03-25T07:55:09;94345.06;;;23.47
12662;BMP180;3200;48.204;11.576;2024-03-25T07:57:35;94354.38;;;22.34
12662;BMP180;3200;48.204;11.576;2024-03-25T08:00:02;94339.75;;;24.07
12662;BMP180;3200;48.204;11.576;2024-03-25T08:02:30;94346.00;;;16.92
12662;BMP180;3200;48.204;11.576;2024-03-25T08:04:56;94380.28;;;14.14
12662;BMP180;3200;48.204;11.576;2024-03-25T08:07:22;94377.84;;;13.39
12662;BMP180;3200;48.204;11.576;2024-03-25T08:09:48;94378.03;;;12.21
12662;BMP180;3200;48.204;11.576;2024-03-25T08:12:14;94343.38;;;11.94
12662;BMP180;3200;48.204;11.576;2024-03-25T08:14:40;94373.19;;;11.91
12662;BMP180;3200;48.204;11.576;2024-03-25T08:17:06;94363.31;;;13.67
12662;BMP180;3200;48.204;11.576;2024-03-25T08:19:31;94328.06;;;15.49
12662;BMP180;3200;48.204;11.576;2024-03-25T08:21:57;94354.69;;;14.53
12662;BMP180;3200;48.204;11.576;2024-03-25T08:24:23;94361.22;;;11.49
12662;BMP180;3200;48.204;11.576;2024-03-25T08:26:52;94363.78;;;12.69
12662;BMP180;3200;48.204;11.576;2024-03-25T08:29:17;94369.81;;;13.29
12662;BMP180;3200;48.204;11.576;2024-03-25T08:31:43;94358.78;;;12.78
12662;BMP180;3200;48.204;11.576;2024-03-25T08:34:09;94359.66;;;12.51
12662;BMP180;3200;48.204;11.576;2024-03-25T08:36:38;94347.88;;;12.15
12662;BMP180;3200;48.204;11.576;2024-03-25T08:39:04;94367.19;;;12.33
12662;BMP180;3200;48.204;11.576;2024-03-25T08:41:30;94367.53;;;12.09
12662;BMP180;3200;48.204;11.576;2024-03-25T08:43:55;94319.47;;;11.50
12662;BMP180;3200;48.204;11.576;2024-03-25T08:46:21;94372.72;;;10.94
12662;BMP180;3200;48.204;11.576;2024-03-25T08:48:47;94353.69;;;11.41
12662;BMP180;3200;48.204;11.576;2024-03-25T08:51:13;94362.34;;;11.54
12662;BMP180;3200;48.204;11.576;2024-03-25T08:53:39;94351.81;;;11.64
12662;BMP180;3200;48.204;11.576;2024-03-25T08:56:07;94340.41;;;11.68
12662;BMP180;3200;48.204;11.576;2024-03-25T08:58:33;94359.06;;;11.46
12662;BMP180;3200;48.204;11.576;2024-03-25T09:00:59;94313.97;;;10.74
12662;BMP180;3200;48.204;11.576;2024-03-25T09:03:24;94340.88;;;10.78
12662;BMP180;3200;48.204;11.576;2024-03-25T09:05:50;94337.19;;;11.00
12662;BMP180;3200;48.204;11.576;2024-03-25T09:08:16;94354.03;;;11.06
12662;BMP180;3200;48.204;11.576;2024-03-25T09:10:44;94321.63;;;10.54
12662;BMP180;3200;48.204;11.576;2024-03-25T09:13:31;94336.53;;;10.38
12662;BMP180;3200;48.204;11.576;2024-03-25T09:15:57;94320.22;;;10.68
12662;BMP180;3200;48.204;11.576;2024-03-25T09:18:23;94341.22;;;10.19
12662;BMP180;3200;48.204;11.576;2024-03-25T09:20:49;94337.41;;;10.60
12662;BMP180;3200;48.204;11.576;2024-03-25T09:23:15;94345.69;;;10.30
12662;BMP180;3200;48.204;11.576;2024-03-25T09:25:54;94334.44;;;10.57
12662;BMP180;3200;48.204;11.576;2024-03-25T09:28:20;94313.75;;;10.97
12662;BMP180;3200;48.204;11.576;2024-03-25T09:30:47;94303.28;;;10.35
12662;BMP180;3200;48.204;11.576;2024-03-25T09:33:14;94331.03;;;10.78
12662;BMP180;3200;48.204;11.576;2024-03-25T09:35:40;94323.72;;;10.68
12662;BMP180;3200;48.204;11.576;2024-03-25T09:38:06;94303.44;;;10.45
12662;BMP180;3200;48.204;11.576;2024-03-25T09:40:39;94320.81;;;11.31
12662;BMP180;3200;48.204;11.576;2024-03-25T09:43:21;94301.50;;;10.96
12662;BMP180;3200;48.204;11.576;2024-03-25T09:45:49;94317.91;;;10.71
12662;BMP180;3200;48.204;11.576;2024-03-25T09:48:21;94291.75;;;10.63
12662;BMP180;3200;48.204;11.576;2024-03-25T09:50:49;94295.44;;;11.23
12662;BMP180;3200;48.204;11.576;2024-03-25T09:53:15;94290.97;;;10.85
12662;BMP180;3200;48.204;11.576;2024-03-25T09:55:42;94267.84;;;10.85
12662;BMP180;3200;48.204;11.576;2024-03-25T09:58:08;94303.66;;;10.61
12662;BMP180;3200;48.204;11.576;2024-03-25T10:00:35;94288.78;;;11.20
12662;BMP180;3200;48.204;11.576;2024-03-25T10:03:01;94290.38;;;11.21
12662;BMP180;3200;48.204;11.576;2024-03-25T10:05:27;94277.03;;;11.65
12662;BMP180;3200;48.204;11.576;2024-03-25T10:07:53;94289.81;;;11.19
12662;BMP180;3200;48.204;11.576;2024-03-25T10:10:22;94289.69;;;11.31
12662;BMP180;3200;48.204;11.576;2024-03-25T10:12:48;94293.38;;;11.25
12662;BMP180;3200;48.204;11.576;2024-03-25T10:15:17;94266.50;;;10.83
12662;BMP180;3200;48.204;11.576;2024-03-25T10:17:44;94277.47;;;11.30
12662;BMP180;3200;48.204;11.576;2024-03-25T10:20:16;94275.69;;;10.75
12662;BMP180;3200;48.204;11.576;2024-03-25T10:22:45;94263.22;;;10.97
12662;BMP180;3200;48.204;11.576;2024-03-25T10:25:31;94264.09;;;11.03
12662;BMP180;3200;48.204;11.576;2024-03-25T10:28:01;94278.25;;;11.09
12662;BMP180;3200;48.204;11.576;2024-03-25T10:30:28;94263.94;;;10.71
12662;BMP180;3200;48.204;11.576;2024-03-25T10:33:03;94257.75;;;10.27
12662;BMP180;3200;48.204;11.576;2024-03-25T10:35:31;94272.19;;;10.19
12662;BMP180;3200;48.204;11.576;2024-03-25T10:38:10;94264.47;;;10.34
12662;BMP180;3200;48.204;11.576;2024-03-25T10:40:38;94255.84;;;10.61
12662;BMP180;3200;48.204;11.576;2024-03-25T10:43:10;94258.22;;;10.62
12662;BMP180;3200;48.204;11.576;2024-03-25T10:45:45;94257.63;;;10.55
12662;BMP180;3200;48.204;11.576;2024-03-25T10:48:27;94238.16;;;10.33
12662;BMP180;3200;48.204;11.576;2024-03-25T10:50:56;94228.66;;;10.20
12662;BMP180;3200;48.204;11.576;2024-03-25T10:53:22;94215.44;;;10.42
12662;BMP180;3200;48.204;11.576;2024-03-25T10:55:54;94232.13;;;10.37
12662;BMP180;3200;48.204;11.576;2024-03-25T10:58:22;94233.56;;;10.11
12662;BMP180;3200;48.204;11.576;2024-03-25T11:00:52;94231.50;;;10.69
12662;BMP180;3200;48.204;11.576;2024-03-25T11:03:28;94222.56;;;10.36
12662;BMP180;3200;48.204;11.576;2024-03-25T11:05:54;94201.78;;;9.99
12662;BMP180;3200;48.204;11.576;2024-03-25T11:08:30;94210.97;;;10.09
12662;BMP180;3200;48.204;11.576;2024-03-25T11:10:56;94210.84;;;10.20
12662;BMP180;3200;48.204;11.576;2024-03-25T11:13:23;94222.03;;;10.39
12662;BMP180;3200;48.204;11.576;2024-03-25T11:15:49;94226.34;;;10.40
12662;BMP180;3200;48.204;11.576;2024-03-25T11:18:22;94188.91;;;9.91
12662;BMP180;3200;48.204;11.576;2024-03-25T11:21:06;94170.00;;;10.05
12662;BMP180;3200;48.204;11.576;2024-03-25T11:23:41;94196.28;;;10.23
12662;BMP180;3200;48.204;11.576;2024-03-25T11:26:26;94193.44;;;9.74
12662;BMP180;3200;48.204;11.576;2024-03-25T11:28:56;94185.97;;;10.43
12662;BMP180;3200;48.204;11.576;2024-03-25T11:31:26;94178.91;;;10.93
12662;BMP180;3200;48.204;11.576;2024-03-25T11:33:55;94172.25;;;10.95
12662;BMP180;3200;48.204;11.576;2024-03-25T11:36:23;94170.53;;;10.84
12662;BMP180;3200;48.204;11.576;2024-03-25T11:39:02;94169.31;;;10.70
12662;BMP180;3200;48.204;11.576;2024-03-25T11:41:33;94172.09;;;10.80
12662;BMP180;3200;48.204;11.576;2024-03-25T11:44:01;94155.81;;;10.98
12662;BMP180;3200;48.204;11.576;2024-03-25T11:46:27;94159.34;;;11.31
12662;BMP180;3200;48.204;11.576;2024-03-25T11:48:53;94151.53;;;11.51
12662;BMP180;3200;48.204;11.576;2024-03-25T11:51:20;94138.41;;;11.72
12662;BMP180;3200;48.204;11.576;2024-03-25T11:53:46;94132.44;;;11.00
12662;BMP180;3200;48.204;11.576;2024-03-25T11:56:11;94152.16;;;11.05
12662;BMP180;3200;48.204;11.576;2024-03-25T11:58:38;94146.84;;;10.78
12662;BMP180;3200;48.204;11.576;2024-03-25T12:01:05;94141.13;;;10.47
12662;BMP180;3200;48.204;11.576;2024-03-25T12:03:33;94138.34;;;10.81
12662;BMP180;3200;48.204;11.576;2024-03-25T12:05:59;94117.16;;;10.64
12662;BMP180;3200;48.204;11.576;2024-03-25T12:08:25;94125.31;;;10.79
12662;BMP180;3200;48.204;11.576;2024-03-25T12:10:52;94118.38;;;10.78
12662;BMP180;3200;48.204;11.576;2024-03-25T12:13:38;94123.22;;;10.59
12662;BMP180;3200;48.204;11.576;2024-03-25T12:16:09;94114.63;;;10.52
12662;BMP180;3200;48.204;11.576;2024-03-25T12:18:36;94089.09;;;10.29
12662;BMP180;3200;48.204;11.576;2024-03-25T12:21:04;94116.81;;;10.16
12662;BMP180;3200;48.204;11.576;2024-03-25T12:23:34;94091.78;;;10.51
12662;BMP180;3200;48.204;11.576;2024-03-25T12:26:01;94096.13;;;10.84
12662;BMP180;3200;48.204;11.576;2024-03-25T12:28:27;94077.06;;;10.65
12662;BMP180;3200;48.204;11.576;2024-03-25T12:30:55;94099.88;;;10.88
12662;BMP180;3200;48.204;11.576;2024-03-25T12:33:24;94094.53;;;10.39
12662;BMP180;3200;48.204;11.576;2024-03-25T12:35:52;94088.19;;;10.02
12662;BMP180;3200;48.204;11.576;2024-03-25T12:38:33;94083.88;;;9.95
12662;BMP180;3200;48.204;11.576;2024-03-25T12:41:11;94060.88;;;10.23
12662;BMP180;3200;48.204;11.576;2024-03-25T12:43:43;94067.09;;;10.12
12662;BMP180;3200;48.204;11.576;2024-03-25T12:46:10;94061.97;;;10.05
12662;BMP180;3200;48.204;11.576;2024-03-25T12:48:37;94054.16;;;10.37
12662;BMP180;3200;48.204;11.576;2024-03-25T12:51:04;94066.44;;;10.43
12662;BMP180;3200;48.204;11.576;2024-03-25T12:53:30;94061.06;;;10.38
12662;BMP180;3200;48.204;11.576;2024-03-25T12:55:56;94052.66;;;10.46
12662;BMP180;3200;48.204;11.576;2024-03-25T12:58:22;94036.84;;;10.35
12662;BMP180;3200;48.204;11.576;2024-03-25T13:00:48;94058.09;;;10.35
12662;BMP180;3200;48.204;11.576;2024-03-25T13:03:14;94043.78;;;9.97
12662;BMP180;3200;48.204;11.576;2024-03-25T13:05:43;94025.38;;;10.29
12662;BMP180;3200;48.204;11.576;2024-03-25T13:08:09;94020.00;;;10.73
12662;BMP180;3200;48.204;11.576;2024-03-25T13:10:35;94021.69;;;10.57
12662;BMP180;3200;48.204;11.576;2024-03-25T13:13:02;94029.44;;;10.59
12662;BMP180;3200;48.204;11.576;2024-03-25T13:15:28;93997.22;;;10.28
12662;BMP180;3200;48.204;11.576;2024-03-25T13:17:54;94023.97;;;10.48
12662;BMP180;3200;48.204;11.576;2024-03-25T13:20:20;94016.06;;;10.54
12662;BMP180;3200;48.204;11.576;2024-03-25T13:22:46;93996.72;;;10.31
12662;BMP180;3200;48.204;11.576;2024-03-25T13:25:13;93992.88;;;10.22
12662;BMP180;3200;48.204;11.576;2024-03-25T13:27:39;94010.06;;;10.36
12662;BMP180;3200;48.204;11.576;2024-03-25T13:30:07;93994.31;;;10.30
12662;BMP180;3200;48.204;11.576;2024-03-25T13:32:33;93991.75;;;10.18
12662;BMP180;3200;48.204;11.576;2024-03-25T13:34:59;93996.69;;;10.26
12662;BMP180;3200;48.204;11.576;2024-03-25T13:37:24;93989.22;;;10.06
12662;BMP180;3200;48.204;11.576;2024-03-25T13:39:50;93940.00;;;9.93
12662;BMP180;3200;48.204;11.576;2024-03-25T13:42:18;93984.34;;;10.20
12662;BMP180;3200;48.204;11.576;2024-03-25T13:44:44;93968.31;;;10.10
12662;BMP180;3200;48.204;11.576;2024-03-25T13:47:10;93965.59;;;10.05
12662;BMP180;3200;48.204;11.576;2024-03-25T13:49:36;93954.97;;;10.05
12662;BMP180;3200;48.204;11.576;2024-03-25T13:52:04;93952.88;;;10.07
12662;BMP180;3200;48.204;11.576;2024-03-25T13:54:30;93950.84;;;9.92
12662;BMP180;3200;48.204;11.576;2024-03-25T13:56:57;93956.41;;;10.12
12662;BMP180;3200;48.204;11.576;2024-03-25T13:59:23;93938.03;;;10.11
12662;BMP180;3200;48.204;11.576;2024-03-25T14:01:48;93937.56;;;10.14
12662;BMP180;3200;48.204;11.576;2024-03-25T14:04:14;93931.09;;;10.05
12662;BMP180;3200;48.204;11.576;2024-03-25T14:06:40;93939.59;;;10.29
12662;BMP180;3200;48.204;11.576;2024-03-25T14:09:07;93936.53;;;10.20
12662;BMP180;3200;48.204;11.576;2024-03-25T14:11:35;93919.59;;;10.48
12662;BMP180;3200;48.204;11.576;2024-03-25T14:14:01;93930.84;;;10.60
12662;BMP180;3200;48.204;11.576;2024-03-25T14:16:28;93914.56;;;10.52